Pagrindinis puslapis
METAR-TAF:

METAR-TAF

Oro uostai :

Konjakas, Prancūzija

platuma: 45-40N, ilguma: 000-19W, Aukštis: 30 m

Dabartinis oras

Ataskaita buvo paskelbta 21 minutes, ne 17:30 UTC
Vėjas 15 kt iš Šiaurės Rytų
Temperatūra 14°C
Drėgmė 24%
Slėgis 1016 hPa
Matomumas 10 km arba daugiau
nėra debesų žemiau 1500 m ir nėra kamuolinių lietaus debesų

METAR: LFBG 311730Z AUTO 05015KT CAVOK 14/M06 Q1016 BECMG 05017G27KT

Laikas: 19:51 (17:51 UTC)

Prognozė

Ataskaita buvo paskelbta 3 valandos ir 51 minutes, ne 14:00 UTC
Prognozė galioja nuo 31 metu 15 UTC su 01 metu 15 UTC
Vėjas 17 kt iš Šiaurės Rytų su gūsio iki 27 kt
Matomumas 10 km arba daugiau
nėra debesų žemiau 1500 m ir nėra kamuolinių lietaus debesų
Tapsmas
nuo 31 metu 22 UTC su 31 metu 24 UTC
Vėjas 10 kt iš Šiaurės Rytų

TAF: LFBG 311400Z 3115/0115 05017G27KT CAVOK BECMG 3122/3124 05010KT

Orai ataskaitas ir orų prognozės (METAR, TAF).

turimą stotys yra geltonos ir raudonos taškus žemėlapyje.

Perkelti pele per norėdami pamatyti stoties vardą.

Tada spustelėkite, norėdami matyti oro stebėjimo ir prognozės.

Norėdami pakeisti žemėlapį: spustelėkite ant žalios mygtukų su juodo kryžiaus žemyn,; žalią mygtuką su brūkšneliu, jei norite nutolinti; arba žalių rodyklių gretimoms žemėlapius.


METAR-TAF: